sensor_id;sensor_type;location;lat;lon;timestamp;temperature;humidity
21104;DHT22;10710;53.398;-1.514;2023-11-21T00:00:16;11.20;99.90
21104;DHT22;10710;53.398;-1.514;2023-11-21T00:03:01;11.20;99.90
21104;DHT22;10710;53.398;-1.514;2023-11-21T00:05:45;11.00;99.90
21104;DHT22;10710;53.398;-1.514;2023-11-21T00:08:29;11.10;99.90
21104;DHT22;10710;53.398;-1.514;2023-11-21T00:11:13;11.10;99.90
21104;DHT22;10710;53.398;-1.514;2023-11-21T00:13:58;11.10;99.90
21104;DHT22;10710;53.398;-1.514;2023-11-21T00:16:42;11.10;99.90
21104;DHT22;10710;53.398;-1.514;2023-11-21T00:19:26;10.90;99.90
21104;DHT22;10710;53.398;-1.514;2023-11-21T00:22:10;11.10;99.90
21104;DHT22;10710;53.398;-1.514;2023-11-21T00:24:54;11.00;99.90
21104;DHT22;10710;53.398;-1.514;2023-11-21T00:27:39;10.90;99.90
21104;DHT22;10710;53.398;-1.514;2023-11-21T00:30:23;10.90;99.90
21104;DHT22;10710;53.398;-1.514;2023-11-21T00:33:07;10.90;99.90
21104;DHT22;10710;53.398;-1.514;2023-11-21T00:35:51;10.80;99.90
21104;DHT22;10710;53.398;-1.514;2023-11-21T00:38:36;10.90;99.90
21104;DHT22;10710;53.398;-1.514;2023-11-21T00:41:22;11.00;99.90
21104;DHT22;10710;53.398;-1.514;2023-11-21T00:44:06;10.90;99.90
21104;DHT22;10710;53.398;-1.514;2023-11-21T00:46:50;11.00;99.90
21104;DHT22;10710;53.398;-1.514;2023-11-21T00:49:35;10.90;99.90
21104;DHT22;10710;53.398;-1.514;2023-11-21T00:52:19;11.00;99.90
21104;DHT22;10710;53.398;-1.514;2023-11-21T00:55:05;10.90;99.90
21104;DHT22;10710;53.398;-1.514;2023-11-21T00:57:51;10.90;99.90
21104;DHT22;10710;53.398;-1.514;2023-11-21T01:00:35;10.90;99.90
21104;DHT22;10710;53.398;-1.514;2023-11-21T01:03:20;10.90;99.90
21104;DHT22;10710;53.398;-1.514;2023-11-21T01:06:04;11.00;99.90
21104;DHT22;10710;53.398;-1.514;2023-11-21T01:08:51;10.90;99.90
21104;DHT22;10710;53.398;-1.514;2023-11-21T01:11:36;10.70;99.90
21104;DHT22;10710;53.398;-1.514;2023-11-21T01:14:21;10.70;99.90
21104;DHT22;10710;53.398;-1.514;2023-11-21T01:17:05;10.80;99.90
21104;DHT22;10710;53.398;-1.514;2023-11-21T01:19:49;10.80;99.90
21104;DHT22;10710;53.398;-1.514;2023-11-21T01:22:34;10.70;99.90
21104;DHT22;10710;53.398;-1.514;2023-11-21T01:25:18;10.80;99.90
21104;DHT22;10710;53.398;-1.514;2023-11-21T01:28:02;10.80;99.90
21104;DHT22;10710;53.398;-1.514;2023-11-21T01:30:48;10.80;99.90
21104;DHT22;10710;53.398;-1.514;2023-11-21T01:33:32;10.70;99.90
21104;DHT22;10710;53.398;-1.514;2023-11-21T01:36:17;10.70;99.90
21104;DHT22;10710;53.398;-1.514;2023-11-21T01:39:01;10.60;99.90
21104;DHT22;10710;53.398;-1.514;2023-11-21T01:41:52;10.40;99.90
21104;DHT22;10710;53.398;-1.514;2023-11-21T01:44:36;10.60;99.90
21104;DHT22;10710;53.398;-1.514;2023-11-21T01:47:21;10.70;99.90
21104;DHT22;10710;53.398;-1.514;2023-11-21T01:50:07;10.70;99.90
21104;DHT22;10710;53.398;-1.514;2023-11-21T01:52:52;10.70;99.90
21104;DHT22;10710;53.398;-1.514;2023-11-21T01:55:36;10.70;99.90
21104;DHT22;10710;53.398;-1.514;2023-11-21T01:58:22;10.70;99.90
21104;DHT22;10710;53.398;-1.514;2023-11-21T02:01:06;10.70;99.90
21104;DHT22;10710;53.398;-1.514;2023-11-21T02:03:50;10.80;99.90
21104;DHT22;10710;53.398;-1.514;2023-11-21T02:06:35;10.80;99.90
21104;DHT22;10710;53.398;-1.514;2023-11-21T02:09:25;10.80;99.90
21104;DHT22;10710;53.398;-1.514;2023-11-21T02:12:09;10.60;99.90
21104;DHT22;10710;53.398;-1.514;2023-11-21T02:14:54;10.60;99.90
21104;DHT22;10710;53.398;-1.514;2023-11-21T02:17:41;10.70;99.90
21104;DHT22;10710;53.398;-1.514;2023-11-21T02:20:25;10.70;99.90
21104;DHT22;10710;53.398;-1.514;2023-11-21T02:23:10;10.80;99.90
21104;DHT22;10710;53.398;-1.514;2023-11-21T02:25:56;10.80;99.90
21104;DHT22;10710;53.398;-1.514;2023-11-21T02:28:40;10.90;99.90
21104;DHT22;10710;53.398;-1.514;2023-11-21T02:31:26;10.80;99.90
21104;DHT22;10710;53.398;-1.514;2023-11-21T02:34:11;10.90;99.90
21104;DHT22;10710;53.398;-1.514;2023-11-21T02:36:57;10.80;99.90
21104;DHT22;10710;53.398;-1.514;2023-11-21T02:39:41;10.60;99.90
21104;DHT22;10710;53.398;-1.514;2023-11-21T02:42:26;10.50;99.90
21104;DHT22;10710;53.398;-1.514;2023-11-21T02:45:10;10.70;99.90
21104;DHT22;10710;53.398;-1.514;2023-11-21T02:47:57;10.80;99.90
21104;DHT22;10710;53.398;-1.514;2023-11-21T02:50:42;10.70;99.90
21104;DHT22;10710;53.398;-1.514;2023-11-21T02:53:27;10.70;99.90
21104;DHT22;10710;53.398;-1.514;2023-11-21T02:56:11;10.70;99.90
21104;DHT22;10710;53.398;-1.514;2023-11-21T02:58:56;10.60;99.90
21104;DHT22;10710;53.398;-1.514;2023-11-21T03:01:41;10.80;99.90
21104;DHT22;10710;53.398;-1.514;2023-11-21T03:04:25;10.70;99.90
21104;DHT22;10710;53.398;-1.514;2023-11-21T03:07:10;10.90;99.90
21104;DHT22;10710;53.398;-1.514;2023-11-21T03:09:54;11.00;99.90
21104;DHT22;10710;53.398;-1.514;2023-11-21T03:12:40;10.90;99.90
21104;DHT22;10710;53.398;-1.514;2023-11-21T03:15:24;10.80;99.90
21104;DHT22;10710;53.398;-1.514;2023-11-21T03:18:08;10.70;99.90
21104;DHT22;10710;53.398;-1.514;2023-11-21T03:20:53;10.80;99.90
21104;DHT22;10710;53.398;-1.514;2023-11-21T03:23:37;10.90;99.90
21104;DHT22;10710;53.398;-1.514;2023-11-21T03:26:21;10.90;99.90
21104;DHT22;10710;53.398;-1.514;2023-11-21T03:29:06;10.80;99.90
21104;DHT22;10710;53.398;-1.514;2023-11-21T03:31:50;10.60;99.90
21104;DHT22;10710;53.398;-1.514;2023-11-21T03:34:35;10.70;99.90
21104;DHT22;10710;53.398;-1.514;2023-11-21T03:37:19;10.70;99.90
21104;DHT22;10710;53.398;-1.514;2023-11-21T03:40:05;10.60;99.90
21104;DHT22;10710;53.398;-1.514;2023-11-21T03:42:52;10.60;99.90
21104;DHT22;10710;53.398;-1.514;2023-11-21T03:45:36;10.80;99.90
21104;DHT22;10710;53.398;-1.514;2023-11-21T03:48:20;10.70;99.90
21104;DHT22;10710;53.398;-1.514;2023-11-21T03:51:05;10.80;99.90
21104;DHT22;10710;53.398;-1.514;2023-11-21T03:53:49;11.00;99.90
21104;DHT22;10710;53.398;-1.514;2023-11-21T03:56:33;10.90;99.90
21104;DHT22;10710;53.398;-1.514;2023-11-21T03:59:17;10.80;99.90
21104;DHT22;10710;53.398;-1.514;2023-11-21T04:02:01;10.70;99.90
21104;DHT22;10710;53.398;-1.514;2023-11-21T04:04:45;10.70;99.90
21104;DHT22;10710;53.398;-1.514;2023-11-21T04:07:29;10.70;99.90
21104;DHT22;10710;53.398;-1.514;2023-11-21T04:10:14;10.70;99.90
21104;DHT22;10710;53.398;-1.514;2023-11-21T04:12:58;10.70;99.90
21104;DHT22;10710;53.398;-1.514;2023-11-21T04:15:44;10.60;99.90
21104;DHT22;10710;53.398;-1.514;2023-11-21T04:18:28;10.80;99.90
21104;DHT22;10710;53.398;-1.514;2023-11-21T04:21:12;10.80;99.90
21104;DHT22;10710;53.398;-1.514;2023-11-21T04:23:56;10.60;99.90
21104;DHT22;10710;53.398;-1.514;2023-11-21T04:26:41;10.70;99.90
21104;DHT22;10710;53.398;-1.514;2023-11-21T04:29:26;10.50;99.90
21104;DHT22;10710;53.398;-1.514;2023-11-21T04:32:10;10.40;99.90
21104;DHT22;10710;53.398;-1.514;2023-11-21T04:34:54;10.40;99.90
21104;DHT22;10710;53.398;-1.514;2023-11-21T04:37:39;10.30;99.90
21104;DHT22;10710;53.398;-1.514;2023-11-21T04:40:24;10.20;99.90
21104;DHT22;10710;53.398;-1.514;2023-11-21T04:43:08;10.30;99.90
21104;DHT22;10710;53.398;-1.514;2023-11-21T04:45:54;10.30;99.90
21104;DHT22;10710;53.398;-1.514;2023-11-21T04:48:39;10.10;99.90
21104;DHT22;10710;53.398;-1.514;2023-11-21T04:51:23;10.00;99.90
21104;DHT22;10710;53.398;-1.514;2023-11-21T04:54:07;10.00;99.90
21104;DHT22;10710;53.398;-1.514;2023-11-21T04:56:51;10.00;99.90
21104;DHT22;10710;53.398;-1.514;2023-11-21T04:59:35;10.00;99.90
21104;DHT22;10710;53.398;-1.514;2023-11-21T05:02:20;9.90;99.90
21104;DHT22;10710;53.398;-1.514;2023-11-21T05:05:05;10.10;99.90
21104;DHT22;10710;53.398;-1.514;2023-11-21T05:07:50;10.10;99.90
21104;DHT22;10710;53.398;-1.514;2023-11-21T05:10:34;10.00;99.90
21104;DHT22;10710;53.398;-1.514;2023-11-21T05:13:18;10.00;99.90
21104;DHT22;10710;53.398;-1.514;2023-11-21T05:16:03;9.90;99.90
21104;DHT22;10710;53.398;-1.514;2023-11-21T05:18:50;10.00;99.90
21104;DHT22;10710;53.398;-1.514;2023-11-21T05:21:35;10.00;99.90
21104;DHT22;10710;53.398;-1.514;2023-11-21T05:24:20;10.10;99.90
21104;DHT22;10710;53.398;-1.514;2023-11-21T05:27:04;10.00;99.90
21104;DHT22;10710;53.398;-1.514;2023-11-21T05:29:49;10.00;99.90
21104;DHT22;10710;53.398;-1.514;2023-11-21T05:32:33;10.00;99.90
21104;DHT22;10710;53.398;-1.514;2023-11-21T05:35:18;9.90;99.90
21104;DHT22;10710;53.398;-1.514;2023-11-21T05:38:02;10.00;99.90
21104;DHT22;10710;53.398;-1.514;2023-11-21T05:40:46;10.10;99.90
21104;DHT22;10710;53.398;-1.514;2023-11-21T05:43:31;10.20;99.90
21104;DHT22;10710;53.398;-1.514;2023-11-21T05:46:16;10.20;99.90
21104;DHT22;10710;53.398;-1.514;2023-11-21T05:49:02;10.10;99.90
21104;DHT22;10710;53.398;-1.514;2023-11-21T05:51:47;10.20;99.90
21104;DHT22;10710;53.398;-1.514;2023-11-21T05:54:32;10.20;99.90
21104;DHT22;10710;53.398;-1.514;2023-11-21T05:57:16;10.20;99.90
21104;DHT22;10710;53.398;-1.514;2023-11-21T06:00:00;10.10;99.90
21104;DHT22;10710;53.398;-1.514;2023-11-21T06:02:51;10.10;99.90
21104;DHT22;10710;53.398;-1.514;2023-11-21T06:05:37;10.20;99.90
21104;DHT22;10710;53.398;-1.514;2023-11-21T06:08:21;10.10;99.90
21104;DHT22;10710;53.398;-1.514;2023-11-21T06:11:05;10.20;99.90
21104;DHT22;10710;53.398;-1.514;2023-11-21T06:13:50;10.20;99.90
21104;DHT22;10710;53.398;-1.514;2023-11-21T06:16:34;10.10;99.90
21104;DHT22;10710;53.398;-1.514;2023-11-21T06:19:18;10.00;99.90
21104;DHT22;10710;53.398;-1.514;2023-11-21T06:22:03;10.10;99.90
21104;DHT22;10710;53.398;-1.514;2023-11-21T06:24:48;10.10;99.90
21104;DHT22;10710;53.398;-1.514;2023-11-21T06:27:32;10.10;99.90
21104;DHT22;10710;53.398;-1.514;2023-11-21T06:30:17;10.20;99.90
21104;DHT22;10710;53.398;-1.514;2023-11-21T06:33:03;10.20;99.90
21104;DHT22;10710;53.398;-1.514;2023-11-21T06:35:48;10.20;99.90
21104;DHT22;10710;53.398;-1.514;2023-11-21T06:38:32;10.10;99.90
21104;DHT22;10710;53.398;-1.514;2023-11-21T06:41:16;10.10;99.90
21104;DHT22;10710;53.398;-1.514;2023-11-21T06:44:00;10.10;99.90
21104;DHT22;10710;53.398;-1.514;2023-11-21T06:46:44;10.00;99.90
21104;DHT22;10710;53.398;-1.514;2023-11-21T06:49:28;10.00;99.90
21104;DHT22;10710;53.398;-1.514;2023-11-21T06:52:12;10.00;99.90
21104;DHT22;10710;53.398;-1.514;2023-11-21T06:54:56;10.00;99.90
21104;DHT22;10710;53.398;-1.514;2023-11-21T06:57:41;10.00;99.90
21104;DHT22;10710;53.398;-1.514;2023-11-21T07:00:25;9.90;99.90
21104;DHT22;10710;53.398;-1.514;2023-11-21T07:03:11;9.90;99.90
21104;DHT22;10710;53.398;-1.514;2023-11-21T07:05:55;10.00;99.90
21104;DHT22;10710;53.398;-1.514;2023-11-21T07:08:40;10.00;99.90
21104;DHT22;10710;53.398;-1.514;2023-11-21T07:11:24;10.00;99.90
21104;DHT22;10710;53.398;-1.514;2023-11-21T07:14:09;9.90;99.90
21104;DHT22;10710;53.398;-1.514;2023-11-21T07:16:53;9.80;99.90
21104;DHT22;10710;53.398;-1.514;2023-11-21T07:19:37;9.80;99.90
21104;DHT22;10710;53.398;-1.514;2023-11-21T07:22:22;9.90;99.90
21104;DHT22;10710;53.398;-1.514;2023-11-21T07:25:06;10.00;99.90
21104;DHT22;10710;53.398;-1.514;2023-11-21T07:27:51;10.00;99.90
21104;DHT22;10710;53.398;-1.514;2023-11-21T07:30:36;10.00;99.90
21104;DHT22;10710;53.398;-1.514;2023-11-21T07:33:21;10.10;99.90
21104;DHT22;10710;53.398;-1.514;2023-11-21T07:36:06;10.10;99.90
21104;DHT22;10710;53.398;-1.514;2023-11-21T07:38:51;10.10;99.90
21104;DHT22;10710;53.398;-1.514;2023-11-21T07:41:35;10.00;99.90
21104;DHT22;10710;53.398;-1.514;2023-11-21T07:44:19;9.90;99.90
21104;DHT22;10710;53.398;-1.514;2023-11-21T07:47:04;9.90;99.90
21104;DHT22;10710;53.398;-1.514;2023-11-21T07:49:48;9.80;99.90
21104;DHT22;10710;53.398;-1.514;2023-11-21T07:52:33;9.80;99.90
21104;DHT22;10710;53.398;-1.514;2023-11-21T07:55:18;9.80;99.90
21104;DHT22;10710;53.398;-1.514;2023-11-21T07:58:02;9.80;99.90
21104;DHT22;10710;53.398;-1.514;2023-11-21T08:00:48;9.80;99.90
21104;DHT22;10710;53.398;-1.514;2023-11-21T08:03:33;9.70;99.90
21104;DHT22;10710;53.398;-1.514;2023-11-21T08:06:17;9.70;99.90
21104;DHT22;10710;53.398;-1.514;2023-11-21T08:09:01;9.60;99.90
21104;DHT22;10710;53.398;-1.514;2023-11-21T08:11:46;9.70;99.90
21104;DHT22;10710;53.398;-1.514;2023-11-21T08:14:30;9.80;99.90
21104;DHT22;10710;53.398;-1.514;2023-11-21T08:17:15;9.70;99.90
21104;DHT22;10710;53.398;-1.514;2023-11-21T08:19:59;9.70;99.90
21104;DHT22;10710;53.398;-1.514;2023-11-21T08:22:44;9.80;99.90
21104;DHT22;10710;53.398;-1.514;2023-11-21T08:25:29;9.80;99.90
21104;DHT22;10710;53.398;-1.514;2023-11-21T08:28:14;9.70;99.90
21104;DHT22;10710;53.398;-1.514;2023-11-21T08:31:01;9.60;99.90
21104;DHT22;10710;53.398;-1.514;2023-11-21T08:33:45;9.60;99.90
21104;DHT22;10710;53.398;-1.514;2023-11-21T08:36:29;9.70;99.90
21104;DHT22;10710;53.398;-1.514;2023-11-21T08:39:15;9.80;99.90
21104;DHT22;10710;53.398;-1.514;2023-11-21T08:42:03;9.70;99.90
21104;DHT22;10710;53.398;-1.514;2023-11-21T08:44:48;9.80;99.90
21104;DHT22;10710;53.398;-1.514;2023-11-21T08:47:33;9.80;99.90
21104;DHT22;10710;53.398;-1.514;2023-11-21T08:50:17;9.70;99.90
21104;DHT22;10710;53.398;-1.514;2023-11-21T08:53:02;9.70;99.90
21104;DHT22;10710;53.398;-1.514;2023-11-21T08:55:46;9.70;99.90
21104;DHT22;10710;53.398;-1.514;2023-11-21T08:58:31;9.70;99.90
21104;DHT22;10710;53.398;-1.514;2023-11-21T09:01:16;9.70;99.90
21104;DHT22;10710;53.398;-1.514;2023-11-21T09:04:01;9.70;99.90
21104;DHT22;10710;53.398;-1.514;2023-11-21T09:06:46;9.60;99.90
21104;DHT22;10710;53.398;-1.514;2023-11-21T09:09:30;9.60;99.90
21104;DHT22;10710;53.398;-1.514;2023-11-21T09:12:15;9.70;99.90
21104;DHT22;10710;53.398;-1.514;2023-11-21T09:15:05;9.60;99.90
21104;DHT22;10710;53.398;-1.514;2023-11-21T09:17:50;9.60;99.90
21104;DHT22;10710;53.398;-1.514;2023-11-21T09:20:34;9.60;99.90
21104;DHT22;10710;53.398;-1.514;2023-11-21T09:23:18;9.70;99.90
21104;DHT22;10710;53.398;-1.514;2023-11-21T09:26:02;9.70;99.90
21104;DHT22;10710;53.398;-1.514;2023-11-21T09:28:47;9.70;99.90
21104;DHT22;10710;53.398;-1.514;2023-11-21T09:31:32;9.70;99.90
21104;DHT22;10710;53.398;-1.514;2023-11-21T09:34:17;9.80;99.90
21104;DHT22;10710;53.398;-1.514;2023-11-21T09:37:03;9.80;99.90
21104;DHT22;10710;53.398;-1.514;2023-11-21T09:39:49;9.90;99.90
21104;DHT22;10710;53.398;-1.514;2023-11-21T09:42:39;9.90;99.90
21104;DHT22;10710;53.398;-1.514;2023-11-21T09:45:35;10.10;99.90
21104;DHT22;10710;53.398;-1.514;2023-11-21T09:48:20;10.00;99.90
21104;DHT22;10710;53.398;-1.514;2023-11-21T09:51:04;10.10;99.90
21104;DHT22;10710;53.398;-1.514;2023-11-21T09:53:50;10.20;99.90
21104;DHT22;10710;53.398;-1.514;2023-11-21T09:56:37;10.10;99.90
21104;DHT22;10710;53.398;-1.514;2023-11-21T09:59:22;10.10;99.90
21104;DHT22;10710;53.398;-1.514;2023-11-21T10:02:07;10.30;99.90
21104;DHT22;10710;53.398;-1.514;2023-11-21T10:04:56;10.30;99.90
21104;DHT22;10710;53.398;-1.514;2023-11-21T10:07:42;10.20;99.90
21104;DHT22;10710;53.398;-1.514;2023-11-21T10:10:30;10.20;99.90
21104;DHT22;10710;53.398;-1.514;2023-11-21T10:13:17;10.20;99.90
21104;DHT22;10710;53.398;-1.514;2023-11-21T10:16:04;10.20;99.90
21104;DHT22;10710;53.398;-1.514;2023-11-21T10:18:52;10.20;99.90
21104;DHT22;10710;53.398;-1.514;2023-11-21T10:21:39;10.30;99.90
21104;DHT22;10710;53.398;-1.514;2023-11-21T10:24:23;10.40;99.90
21104;DHT22;10710;53.398;-1.514;2023-11-21T10:27:08;10.50;99.90
21104;DHT22;10710;53.398;-1.514;2023-11-21T10:29:53;10.50;99.90
21104;DHT22;10710;53.398;-1.514;2023-11-21T10:32:41;10.40;99.90
21104;DHT22;10710;53.398;-1.514;2023-11-21T10:35:24;10.60;99.90
21104;DHT22;10710;53.398;-1.514;2023-11-21T10:38:09;10.60;99.90
21104;DHT22;10710;53.398;-1.514;2023-11-21T10:40:54;10.60;99.90
21104;DHT22;10710;53.398;-1.514;2023-11-21T10:43:39;10.80;99.90
21104;DHT22;10710;53.398;-1.514;2023-11-21T10:46:24;10.50;99.90
21104;DHT22;10710;53.398;-1.514;2023-11-21T10:49:10;10.50;99.90
21104;DHT22;10710;53.398;-1.514;2023-11-21T10:51:55;10.50;99.90
21104;DHT22;10710;53.398;-1.514;2023-11-21T10:54:40;10.40;99.90
21104;DHT22;10710;53.398;-1.514;2023-11-21T10:57:25;10.40;99.90
21104;DHT22;10710;53.398;-1.514;2023-11-21T11:00:10;10.50;99.90
21104;DHT22;10710;53.398;-1.514;2023-11-21T11:02:57;10.50;99.90
21104;DHT22;10710;53.398;-1.514;2023-11-21T11:05:44;10.40;99.90
21104;DHT22;10710;53.398;-1.514;2023-11-21T11:08:39;10.50;99.90
21104;DHT22;10710;53.398;-1.514;2023-11-21T11:11:24;10.40;99.90
21104;DHT22;10710;53.398;-1.514;2023-11-21T11:14:13;10.60;99.90
21104;DHT22;10710;53.398;-1.514;2023-11-21T11:16:58;10.60;99.90
21104;DHT22;10710;53.398;-1.514;2023-11-21T11:19:45;10.60;99.90
21104;DHT22;10710;53.398;-1.514;2023-11-21T11:26:19;10.70;99.90
21104;DHT22;10710;53.398;-1.514;2023-11-21T11:33:00;11.20;99.90
21104;DHT22;10710;53.398;-1.514;2023-11-21T11:38:23;11.20;99.90
21104;DHT22;10710;53.398;-1.514;2023-11-21T11:41:07;11.20;99.90
21104;DHT22;10710;53.398;-1.514;2023-11-21T11:43:54;11.10;99.90
21104;DHT22;10710;53.398;-1.514;2023-11-21T11:46:42;10.90;99.90
21104;DHT22;10710;53.398;-1.514;2023-11-21T11:49:29;10.90;99.90
21104;DHT22;10710;53.398;-1.514;2023-11-21T11:55:21;10.80;99.90
21104;DHT22;10710;53.398;-1.514;2023-11-21T11:58:07;10.80;99.90
21104;DHT22;10710;53.398;-1.514;2023-11-21T12:00:52;10.70;99.90
21104;DHT22;10710;53.398;-1.514;2023-11-21T12:03:37;10.80;99.90
21104;DHT22;10710;53.398;-1.514;2023-11-21T12:06:34;10.80;99.90
21104;DHT22;10710;53.398;-1.514;2023-11-21T12:09:20;10.80;99.90
21104;DHT22;10710;53.398;-1.514;2023-11-21T12:12:05;10.70;99.90
21104;DHT22;10710;53.398;-1.514;2023-11-21T12:14:49;10.80;99.90
21104;DHT22;10710;53.398;-1.514;2023-11-21T12:17:34;10.80;99.90
21104;DHT22;10710;53.398;-1.514;2023-11-21T12:20:20;11.00;99.90
21104;DHT22;10710;53.398;-1.514;2023-11-21T12:23:05;11.30;99.90
21104;DHT22;10710;53.398;-1.514;2023-11-21T12:25:50;11.40;99.90
21104;DHT22;10710;53.398;-1.514;2023-11-21T12:28:35;11.60;99.90
21104;DHT22;10710;53.398;-1.514;2023-11-21T12:31:19;11.60;99.90
21104;DHT22;10710;53.398;-1.514;2023-11-21T12:34:04;11.80;99.90
21104;DHT22;10710;53.398;-1.514;2023-11-21T12:36:50;11.90;99.90
21104;DHT22;10710;53.398;-1.514;2023-11-21T12:39:36;12.00;99.90
21104;DHT22;10710;53.398;-1.514;2023-11-21T12:42:20;12.10;99.90
21104;DHT22;10710;53.398;-1.514;2023-11-21T12:48:04;11.90;99.90
21104;DHT22;10710;53.398;-1.514;2023-11-21T12:50:52;11.80;99.90
21104;DHT22;10710;53.398;-1.514;2023-11-21T12:53:38;11.70;99.90
21104;DHT22;10710;53.398;-1.514;2023-11-21T12:56:22;11.60;99.90
21104;DHT22;10710;53.398;-1.514;2023-11-21T12:59:09;11.40;99.90
21104;DHT22;10710;53.398;-1.514;2023-11-21T13:01:58;11.20;99.90
21104;DHT22;10710;53.398;-1.514;2023-11-21T13:04:52;11.40;99.90
21104;DHT22;10710;53.398;-1.514;2023-11-21T13:07:43;11.60;99.90
21104;DHT22;10710;53.398;-1.514;2023-11-21T13:10:36;11.30;99.90
21104;DHT22;10710;53.398;-1.514;2023-11-21T13:13:21;10.90;99.90
21104;DHT22;10710;53.398;-1.514;2023-11-21T13:16:06;10.90;99.90
21104;DHT22;10710;53.398;-1.514;2023-11-21T13:18:52;11.00;99.90
21104;DHT22;10710;53.398;-1.514;2023-11-21T13:21:36;11.00;99.90
21104;DHT22;10710;53.398;-1.514;2023-11-21T13:24:23;11.00;99.90
21104;DHT22;10710;53.398;-1.514;2023-11-21T13:27:09;10.90;99.90
21104;DHT22;10710;53.398;-1.514;2023-11-21T13:29:54;11.10;99.90
21104;DHT22;10710;53.398;-1.514;2023-11-21T13:32:38;11.30;99.90
21104;DHT22;10710;53.398;-1.514;2023-11-21T13:35:24;11.50;99.90
21104;DHT22;10710;53.398;-1.514;2023-11-21T13:38:17;11.60;99.90
21104;DHT22;10710;53.398;-1.514;2023-11-21T13:41:02;11.40;99.90
21104;DHT22;10710;53.398;-1.514;2023-11-21T13:43:47;11.30;99.90
21104;DHT22;10710;53.398;-1.514;2023-11-21T13:46:43;11.40;99.90
21104;DHT22;10710;53.398;-1.514;2023-11-21T13:49:28;11.50;99.90
21104;DHT22;10710;53.398;-1.514;2023-11-21T13:52:16;11.50;99.90
21104;DHT22;10710;53.398;-1.514;2023-11-21T13:55:01;11.60;99.90
21104;DHT22;10710;53.398;-1.514;2023-11-21T13:57:50;11.60;99.90
21104;DHT22;10710;53.398;-1.514;2023-11-21T14:00:36;11.60;99.90
21104;DHT22;10710;53.398;-1.514;2023-11-21T14:03:30;11.70;99.90
21104;DHT22;10710;53.398;-1.514;2023-11-21T14:06:23;11.90;99.90
21104;DHT22;10710;53.398;-1.514;2023-11-21T14:09:21;12.00;99.90
21104;DHT22;10710;53.398;-1.514;2023-11-21T14:12:09;12.00;99.90
21104;DHT22;10710;53.398;-1.514;2023-11-21T14:14:56;11.90;99.90
21104;DHT22;10710;53.398;-1.514;2023-11-21T14:17:40;11.70;99.90
21104;DHT22;10710;53.398;-1.514;2023-11-21T14:20:26;11.50;99.90
21104;DHT22;10710;53.398;-1.514;2023-11-21T14:23:10;11.40;99.90
21104;DHT22;10710;53.398;-1.514;2023-11-21T14:25:55;11.20;99.90
21104;DHT22;10710;53.398;-1.514;2023-11-21T14:28:40;11.30;99.90
21104;DHT22;10710;53.398;-1.514;2023-11-21T14:31:24;11.20;99.90
21104;DHT22;10710;53.398;-1.514;2023-11-21T14:34:09;11.20;99.90
21104;DHT22;10710;53.398;-1.514;2023-11-21T14:36:53;11.20;99.90
21104;DHT22;10710;53.398;-1.514;2023-11-21T14:39:37;11.20;99.90
21104;DHT22;10710;53.398;-1.514;2023-11-21T14:42:27;11.00;99.90
21104;DHT22;10710;53.398;-1.514;2023-11-21T14:45:14;11.00;99.90
21104;DHT22;10710;53.398;-1.514;2023-11-21T14:48:03;11.00;99.90
21104;DHT22;10710;53.398;-1.514;2023-11-21T14:50:52;10.80;99.90
21104;DHT22;10710;53.398;-1.514;2023-11-21T14:53:45;10.90;99.90
21104;DHT22;10710;53.398;-1.514;2023-11-21T14:56:39;10.80;99.90
21104;DHT22;10710;53.398;-1.514;2023-11-21T14:59:26;10.90;99.90
21104;DHT22;10710;53.398;-1.514;2023-11-21T15:02:10;10.80;99.90
21104;DHT22;10710;53.398;-1.514;2023-11-21T15:05:05;10.50;99.90
21104;DHT22;10710;53.398;-1.514;2023-11-21T15:07:53;10.50;99.90
21104;DHT22;10710;53.398;-1.514;2023-11-21T15:10:52;10.50;99.90
21104;DHT22;10710;53.398;-1.514;2023-11-21T15:13:39;10.60;99.90
21104;DHT22;10710;53.398;-1.514;2023-11-21T15:16:26;10.50;99.90
21104;DHT22;10710;53.398;-1.514;2023-11-21T15:19:11;10.40;99.90
21104;DHT22;10710;53.398;-1.514;2023-11-21T15:21:56;10.40;99.90
21104;DHT22;10710;53.398;-1.514;2023-11-21T15:24:43;10.50;99.90
21104;DHT22;10710;53.398;-1.514;2023-11-21T15:27:30;10.40;99.90
21104;DHT22;10710;53.398;-1.514;2023-11-21T15:30:14;10.30;99.90
21104;DHT22;10710;53.398;-1.514;2023-11-21T15:32:59;10.30;99.90
21104;DHT22;10710;53.398;-1.514;2023-11-21T15:35:44;10.40;99.90
21104;DHT22;10710;53.398;-1.514;2023-11-21T15:38:28;10.50;99.90
21104;DHT22;10710;53.398;-1.514;2023-11-21T15:41:13;10.50;99.90
21104;DHT22;10710;53.398;-1.514;2023-11-21T15:43:57;10.40;99.90
21104;DHT22;10710;53.398;-1.514;2023-11-21T15:46:42;10.40;99.90
21104;DHT22;10710;53.398;-1.514;2023-11-21T15:49:26;9.90;99.90
21104;DHT22;10710;53.398;-1.514;2023-11-21T15:52:12;9.90;99.90
21104;DHT22;10710;53.398;-1.514;2023-11-21T15:54:57;10.00;99.90
21104;DHT22;10710;53.398;-1.514;2023-11-21T15:57:41;10.20;99.90
21104;DHT22;10710;53.398;-1.514;2023-11-21T16:00:26;10.30;99.90
21104;DHT22;10710;53.398;-1.514;2023-11-21T16:03:11;10.20;99.90
21104;DHT22;10710;53.398;-1.514;2023-11-21T16:05:56;10.20;99.90
21104;DHT22;10710;53.398;-1.514;2023-11-21T16:08:40;10.10;99.90
21104;DHT22;10710;53.398;-1.514;2023-11-21T16:11:25;9.90;99.90
21104;DHT22;10710;53.398;-1.514;2023-11-21T16:14:09;9.90;99.90
21104;DHT22;10710;53.398;-1.514;2023-11-21T16:16:54;9.90;99.90
21104;DHT22;10710;53.398;-1.514;2023-11-21T16:19:39;9.90;99.90
21104;DHT22;10710;53.398;-1.514;2023-11-21T16:22:23;9.90;99.90
21104;DHT22;10710;53.398;-1.514;2023-11-21T16:25:09;9.90;99.90
21104;DHT22;10710;53.398;-1.514;2023-11-21T16:27:57;9.90;99.90
21104;DHT22;10710;53.398;-1.514;2023-11-21T16:30:48;9.90;99.90
21104;DHT22;10710;53.398;-1.514;2023-11-21T16:33:32;9.90;99.90
21104;DHT22;10710;53.398;-1.514;2023-11-21T16:36:17;10.00;99.90
21104;DHT22;10710;53.398;-1.514;2023-11-21T16:39:01;9.80;99.90
21104;DHT22;10710;53.398;-1.514;2023-11-21T16:41:45;9.80;99.90
21104;DHT22;10710;53.398;-1.514;2023-11-21T16:44:31;9.90;99.90
21104;DHT22;10710;53.398;-1.514;2023-11-21T16:47:15;10.00;99.90
21104;DHT22;10710;53.398;-1.514;2023-11-21T16:50:01;10.10;99.90
21104;DHT22;10710;53.398;-1.514;2023-11-21T16:52:45;10.00;99.90
21104;DHT22;10710;53.398;-1.514;2023-11-21T16:55:29;10.00;99.90
21104;DHT22;10710;53.398;-1.514;2023-11-21T16:58:14;10.00;99.90
21104;DHT22;10710;53.398;-1.514;2023-11-21T17:01:00;10.00;99.90
21104;DHT22;10710;53.398;-1.514;2023-11-21T17:03:46;9.90;99.90
21104;DHT22;10710;53.398;-1.514;2023-11-21T17:06:33;9.80;99.90
21104;DHT22;10710;53.398;-1.514;2023-11-21T17:09:17;9.80;99.90
21104;DHT22;10710;53.398;-1.514;2023-11-21T17:12:04;9.80;99.90
21104;DHT22;10710;53.398;-1.514;2023-11-21T17:14:49;9.70;99.90
21104;DHT22;10710;53.398;-1.514;2023-11-21T17:17:33;9.70;99.90
21104;DHT22;10710;53.398;-1.514;2023-11-21T17:20:18;9.70;99.90
21104;DHT22;10710;53.398;-1.514;2023-11-21T17:23:03;9.60;99.90
21104;DHT22;10710;53.398;-1.514;2023-11-21T17:25:49;9.50;99.90
21104;DHT22;10710;53.398;-1.514;2023-11-21T17:28:34;9.50;99.90